sensor_id;sensor_type;location;lat;lon;timestamp;P1;durP1;ratioP1;P2;durP2;ratioP2
44248;SDS011;29923;48.718;9.272;2023-08-17T00:01:09;10.98;;;5.20;;
44248;SDS011;29923;48.718;9.272;2023-08-17T00:03:34;8.18;;;5.00;;
44248;SDS011;29923;48.718;9.272;2023-08-17T00:06:00;6.72;;;4.35;;
44248;SDS011;29923;48.718;9.272;2023-08-17T00:08:25;9.18;;;5.30;;
44248;SDS011;29923;48.718;9.272;2023-08-17T00:10:50;7.75;;;5.22;;
44248;SDS011;29923;48.718;9.272;2023-08-17T00:13:16;11.40;;;5.50;;
44248;SDS011;29923;48.718;9.272;2023-08-17T00:15:41;11.13;;;5.00;;
44248;SDS011;29923;48.718;9.272;2023-08-17T00:18:06;10.57;;;4.90;;
44248;SDS011;29923;48.718;9.272;2023-08-17T00:20:32;8.48;;;5.07;;
44248;SDS011;29923;48.718;9.272;2023-08-17T00:22:57;9.65;;;6.22;;
44248;SDS011;29923;48.718;9.272;2023-08-17T00:25:22;11.50;;;4.85;;
44248;SDS011;29923;48.718;9.272;2023-08-17T00:27:48;11.10;;;5.57;;
44248;SDS011;29923;48.718;9.272;2023-08-17T00:30:13;9.90;;;5.55;;
44248;SDS011;29923;48.718;9.272;2023-08-17T00:32:39;12.10;;;5.75;;
44248;SDS011;29923;48.718;9.272;2023-08-17T00:35:04;14.07;;;5.95;;
44248;SDS011;29923;48.718;9.272;2023-08-17T00:37:30;16.25;;;6.50;;
44248;SDS011;29923;48.718;9.272;2023-08-17T00:39:55;9.60;;;5.30;;
44248;SDS011;29923;48.718;9.272;2023-08-17T00:42:21;10.50;;;7.47;;
44248;SDS011;29923;48.718;9.272;2023-08-17T00:44:46;15.77;;;8.93;;
44248;SDS011;29923;48.718;9.272;2023-08-17T00:47:11;14.68;;;10.50;;
44248;SDS011;29923;48.718;9.272;2023-08-17T00:49:37;11.52;;;8.95;;
44248;SDS011;29923;48.718;9.272;2023-08-17T00:52:02;13.10;;;8.70;;
44248;SDS011;29923;48.718;9.272;2023-08-17T00:54:30;12.65;;;9.25;;
44248;SDS011;29923;48.718;9.272;2023-08-17T00:56:56;12.73;;;8.85;;
44248;SDS011;29923;48.718;9.272;2023-08-17T00:59:22;18.13;;;10.20;;
44248;SDS011;29923;48.718;9.272;2023-08-17T01:01:48;18.20;;;11.13;;
44248;SDS011;29923;48.718;9.272;2023-08-17T01:04:14;13.52;;;9.55;;
44248;SDS011;29923;48.718;9.272;2023-08-17T01:06:39;14.85;;;9.95;;
44248;SDS011;29923;48.718;9.272;2023-08-17T01:09:05;17.05;;;11.75;;
44248;SDS011;29923;48.718;9.272;2023-08-17T01:11:37;18.58;;;13.02;;
44248;SDS011;29923;48.718;9.272;2023-08-17T01:14:23;19.02;;;14.15;;
44248;SDS011;29923;48.718;9.272;2023-08-17T01:17:00;18.92;;;15.52;;
44248;SDS011;29923;48.718;9.272;2023-08-17T01:19:29;21.10;;;13.50;;
44248;SDS011;29923;48.718;9.272;2023-08-17T01:21:59;23.60;;;18.10;;
44248;SDS011;29923;48.718;9.272;2023-08-17T01:24:26;21.23;;;15.98;;
44248;SDS011;29923;48.718;9.272;2023-08-17T01:26:52;18.90;;;16.83;;
44248;SDS011;29923;48.718;9.272;2023-08-17T01:29:17;19.50;;;15.70;;
44248;SDS011;29923;48.718;9.272;2023-08-17T01:31:44;31.65;;;16.75;;
44248;SDS011;29923;48.718;9.272;2023-08-17T01:34:14;20.90;;;17.02;;
44248;SDS011;29923;48.718;9.272;2023-08-17T01:36:45;22.88;;;17.50;;
44248;SDS011;29923;48.718;9.272;2023-08-17T01:39:12;26.60;;;14.88;;
44248;SDS011;29923;48.718;9.272;2023-08-17T01:41:38;20.25;;;16.20;;
44248;SDS011;29923;48.718;9.272;2023-08-17T01:44:04;22.75;;;16.52;;
44248;SDS011;29923;48.718;9.272;2023-08-17T01:46:30;19.58;;;16.00;;
44248;SDS011;29923;48.718;9.272;2023-08-17T01:48:59;21.63;;;13.85;;
44248;SDS011;29923;48.718;9.272;2023-08-17T01:51:25;20.20;;;14.57;;
44248;SDS011;29923;48.718;9.272;2023-08-17T01:53:50;20.20;;;15.65;;
44248;SDS011;29923;48.718;9.272;2023-08-17T01:56:16;23.15;;;15.07;;
44248;SDS011;29923;48.718;9.272;2023-08-17T01:58:41;17.45;;;14.65;;
44248;SDS011;29923;48.718;9.272;2023-08-17T02:01:06;18.67;;;14.32;;
44248;SDS011;29923;48.718;9.272;2023-08-17T02:03:32;25.20;;;16.80;;
44248;SDS011;29923;48.718;9.272;2023-08-17T02:05:58;18.35;;;16.42;;
44248;SDS011;29923;48.718;9.272;2023-08-17T02:08:23;21.30;;;16.60;;
44248;SDS011;29923;48.718;9.272;2023-08-17T02:10:49;21.88;;;17.42;;
44248;SDS011;29923;48.718;9.272;2023-08-17T02:13:15;20.58;;;17.35;;
44248;SDS011;29923;48.718;9.272;2023-08-17T02:15:40;23.88;;;16.45;;
44248;SDS011;29923;48.718;9.272;2023-08-17T02:18:06;25.80;;;18.33;;
44248;SDS011;29923;48.718;9.272;2023-08-17T02:20:31;23.50;;;17.52;;
44248;SDS011;29923;48.718;9.272;2023-08-17T02:22:57;25.40;;;17.65;;
44248;SDS011;29923;48.718;9.272;2023-08-17T02:25:22;23.40;;;17.73;;
44248;SDS011;29923;48.718;9.272;2023-08-17T02:27:47;22.90;;;18.40;;
44248;SDS011;29923;48.718;9.272;2023-08-17T02:30:13;20.15;;;16.08;;
44248;SDS011;29923;48.718;9.272;2023-08-17T02:32:38;25.02;;;17.30;;
44248;SDS011;29923;48.718;9.272;2023-08-17T02:35:04;19.13;;;15.95;;
44248;SDS011;29923;48.718;9.272;2023-08-17T02:37:29;27.33;;;18.73;;
44248;SDS011;29923;48.718;9.272;2023-08-17T02:39:55;23.60;;;17.80;;
44248;SDS011;29923;48.718;9.272;2023-08-17T02:42:20;23.23;;;17.77;;
44248;SDS011;29923;48.718;9.272;2023-08-17T02:44:45;27.15;;;17.30;;
44248;SDS011;29923;48.718;9.272;2023-08-17T02:47:11;22.75;;;16.45;;
44248;SDS011;29923;48.718;9.272;2023-08-17T02:49:36;31.25;;;20.73;;
44248;SDS011;29923;48.718;9.272;2023-08-17T02:52:01;24.60;;;17.83;;
44248;SDS011;29923;48.718;9.272;2023-08-17T02:54:27;22.80;;;17.13;;
44248;SDS011;29923;48.718;9.272;2023-08-17T02:56:52;22.90;;;16.02;;
44248;SDS011;29923;48.718;9.272;2023-08-17T02:59:18;21.48;;;16.85;;
44248;SDS011;29923;48.718;9.272;2023-08-17T03:01:44;27.45;;;19.15;;
44248;SDS011;29923;48.718;9.272;2023-08-17T03:04:10;38.95;;;24.35;;
44248;SDS011;29923;48.718;9.272;2023-08-17T03:06:35;28.00;;;22.35;;
44248;SDS011;29923;48.718;9.272;2023-08-17T03:09:01;28.55;;;20.45;;
44248;SDS011;29923;48.718;9.272;2023-08-17T03:11:27;30.05;;;21.75;;
44248;SDS011;29923;48.718;9.272;2023-08-17T03:13:52;24.70;;;19.25;;
44248;SDS011;29923;48.718;9.272;2023-08-17T03:16:20;27.70;;;20.23;;
44248;SDS011;29923;48.718;9.272;2023-08-17T03:18:45;27.48;;;19.70;;
44248;SDS011;29923;48.718;9.272;2023-08-17T03:21:10;45.25;;;25.77;;
44248;SDS011;29923;48.718;9.272;2023-08-17T03:23:36;37.35;;;25.10;;
44248;SDS011;29923;48.718;9.272;2023-08-17T03:26:01;27.35;;;20.63;;
44248;SDS011;29923;48.718;9.272;2023-08-17T03:28:27;37.08;;;24.30;;
44248;SDS011;29923;48.718;9.272;2023-08-17T03:30:55;35.08;;;26.10;;
44248;SDS011;29923;48.718;9.272;2023-08-17T03:33:21;31.77;;;22.33;;
44248;SDS011;29923;48.718;9.272;2023-08-17T03:35:46;23.20;;;19.15;;
44248;SDS011;29923;48.718;9.272;2023-08-17T03:38:12;22.35;;;18.40;;
44248;SDS011;29923;48.718;9.272;2023-08-17T03:40:37;23.00;;;18.23;;
44248;SDS011;29923;48.718;9.272;2023-08-17T03:43:02;36.78;;;23.80;;
44248;SDS011;29923;48.718;9.272;2023-08-17T03:45:28;26.73;;;18.45;;
44248;SDS011;29923;48.718;9.272;2023-08-17T03:47:54;29.55;;;20.70;;
44248;SDS011;29923;48.718;9.272;2023-08-17T03:50:19;23.05;;;17.67;;
44248;SDS011;29923;48.718;9.272;2023-08-17T03:52:45;21.27;;;16.20;;
44248;SDS011;29923;48.718;9.272;2023-08-17T03:55:10;19.38;;;15.75;;
44248;SDS011;29923;48.718;9.272;2023-08-17T03:57:35;17.70;;;14.18;;
44248;SDS011;29923;48.718;9.272;2023-08-17T04:00:01;29.15;;;17.80;;
44248;SDS011;29923;48.718;9.272;2023-08-17T04:02:26;30.98;;;19.42;;
44248;SDS011;29923;48.718;9.272;2023-08-17T04:04:51;20.52;;;15.60;;
44248;SDS011;29923;48.718;9.272;2023-08-17T04:07:21;23.52;;;14.73;;
44248;SDS011;29923;48.718;9.272;2023-08-17T04:09:47;30.08;;;17.33;;
44248;SDS011;29923;48.718;9.272;2023-08-17T04:12:12;17.63;;;13.93;;
44248;SDS011;29923;48.718;9.272;2023-08-17T04:14:38;19.90;;;14.00;;
44248;SDS011;29923;48.718;9.272;2023-08-17T04:17:03;25.58;;;14.98;;
44248;SDS011;29923;48.718;9.272;2023-08-17T04:19:28;18.17;;;13.10;;
44248;SDS011;29923;48.718;9.272;2023-08-17T04:21:53;22.25;;;11.73;;
44248;SDS011;29923;48.718;9.272;2023-08-17T04:24:19;18.70;;;13.50;;
44248;SDS011;29923;48.718;9.272;2023-08-17T04:26:44;21.58;;;14.63;;
44248;SDS011;29923;48.718;9.272;2023-08-17T04:29:09;19.02;;;13.77;;
44248;SDS011;29923;48.718;9.272;2023-08-17T04:31:35;18.88;;;14.80;;
44248;SDS011;29923;48.718;9.272;2023-08-17T04:34:00;19.23;;;14.57;;
44248;SDS011;29923;48.718;9.272;2023-08-17T04:36:25;21.58;;;15.45;;
44248;SDS011;29923;48.718;9.272;2023-08-17T04:38:51;20.25;;;13.98;;
44248;SDS011;29923;48.718;9.272;2023-08-17T04:41:16;20.23;;;16.30;;
44248;SDS011;29923;48.718;9.272;2023-08-17T04:43:42;22.10;;;16.60;;
44248;SDS011;29923;48.718;9.272;2023-08-17T04:46:08;20.77;;;15.50;;
44248;SDS011;29923;48.718;9.272;2023-08-17T04:48:33;21.10;;;16.73;;
44248;SDS011;29923;48.718;9.272;2023-08-17T04:50:58;22.25;;;16.65;;
44248;SDS011;29923;48.718;9.272;2023-08-17T04:53:24;25.27;;;18.45;;
44248;SDS011;29923;48.718;9.272;2023-08-17T04:55:49;24.05;;;18.35;;
44248;SDS011;29923;48.718;9.272;2023-08-17T04:58:14;26.88;;;18.77;;
44248;SDS011;29923;48.718;9.272;2023-08-17T05:00:40;20.98;;;16.55;;
44248;SDS011;29923;48.718;9.272;2023-08-17T05:03:06;21.58;;;16.55;;
44248;SDS011;29923;48.718;9.272;2023-08-17T05:05:31;24.98;;;15.65;;
44248;SDS011;29923;48.718;9.272;2023-08-17T05:07:57;22.02;;;18.13;;
44248;SDS011;29923;48.718;9.272;2023-08-17T05:10:22;19.02;;;15.52;;
44248;SDS011;29923;48.718;9.272;2023-08-17T05:12:47;23.25;;;18.08;;
44248;SDS011;29923;48.718;9.272;2023-08-17T05:15:13;23.73;;;16.45;;
44248;SDS011;29923;48.718;9.272;2023-08-17T05:17:38;24.58;;;17.98;;
44248;SDS011;29923;48.718;9.272;2023-08-17T05:20:04;32.67;;;22.10;;
44248;SDS011;29923;48.718;9.272;2023-08-17T05:22:30;23.23;;;18.48;;
44248;SDS011;29923;48.718;9.272;2023-08-17T05:24:55;25.92;;;16.95;;
44248;SDS011;29923;48.718;9.272;2023-08-17T05:27:21;23.77;;;16.35;;
44248;SDS011;29923;48.718;9.272;2023-08-17T05:29:46;23.00;;;15.60;;
44248;SDS011;29923;48.718;9.272;2023-08-17T05:32:11;24.15;;;19.33;;
44248;SDS011;29923;48.718;9.272;2023-08-17T05:34:37;19.35;;;15.05;;
44248;SDS011;29923;48.718;9.272;2023-08-17T05:37:02;21.83;;;14.43;;
44248;SDS011;29923;48.718;9.272;2023-08-17T05:39:28;22.45;;;16.95;;
44248;SDS011;29923;48.718;9.272;2023-08-17T05:41:53;17.25;;;14.57;;
44248;SDS011;29923;48.718;9.272;2023-08-17T05:44:18;19.75;;;16.00;;
44248;SDS011;29923;48.718;9.272;2023-08-17T05:46:44;22.58;;;16.35;;
44248;SDS011;29923;48.718;9.272;2023-08-17T05:49:09;18.67;;;14.98;;
44248;SDS011;29923;48.718;9.272;2023-08-17T05:51:35;19.52;;;15.45;;
44248;SDS011;29923;48.718;9.272;2023-08-17T05:54:00;23.48;;;17.55;;
44248;SDS011;29923;48.718;9.272;2023-08-17T05:56:25;25.95;;;15.57;;
44248;SDS011;29923;48.718;9.272;2023-08-17T05:58:51;23.48;;;16.88;;
44248;SDS011;29923;48.718;9.272;2023-08-17T06:01:16;20.75;;;15.13;;
44248;SDS011;29923;48.718;9.272;2023-08-17T06:03:42;22.05;;;16.77;;
44248;SDS011;29923;48.718;9.272;2023-08-17T06:06:07;21.42;;;17.20;;
44248;SDS011;29923;48.718;9.272;2023-08-17T06:08:33;33.50;;;18.77;;
44248;SDS011;29923;48.718;9.272;2023-08-17T06:10:58;20.73;;;16.27;;
44248;SDS011;29923;48.718;9.272;2023-08-17T06:13:23;18.33;;;14.23;;
44248;SDS011;29923;48.718;9.272;2023-08-17T06:15:49;26.70;;;16.23;;
44248;SDS011;29923;48.718;9.272;2023-08-17T06:18:14;29.77;;;16.50;;
44248;SDS011;29923;48.718;9.272;2023-08-17T06:20:40;19.35;;;15.65;;
44248;SDS011;29923;48.718;9.272;2023-08-17T06:23:05;25.60;;;16.80;;
44248;SDS011;29923;48.718;9.272;2023-08-17T06:25:30;33.83;;;20.40;;
44248;SDS011;29923;48.718;9.272;2023-08-17T06:27:56;31.95;;;22.17;;
44248;SDS011;29923;48.718;9.272;2023-08-17T06:30:21;32.13;;;22.88;;
44248;SDS011;29923;48.718;9.272;2023-08-17T06:32:47;31.13;;;23.52;;
44248;SDS011;29923;48.718;9.272;2023-08-17T06:35:12;31.13;;;22.30;;
44248;SDS011;29923;48.718;9.272;2023-08-17T06:37:38;28.27;;;19.60;;
44248;SDS011;29923;48.718;9.272;2023-08-17T06:40:04;27.90;;;19.35;;
44248;SDS011;29923;48.718;9.272;2023-08-17T06:42:34;31.35;;;18.85;;
44248;SDS011;29923;48.718;9.272;2023-08-17T06:44:59;28.58;;;19.75;;
44248;SDS011;29923;48.718;9.272;2023-08-17T06:47:24;26.63;;;18.58;;
44248;SDS011;29923;48.718;9.272;2023-08-17T06:49:50;25.85;;;18.20;;
44248;SDS011;29923;48.718;9.272;2023-08-17T06:52:15;27.65;;;20.05;;
44248;SDS011;29923;48.718;9.272;2023-08-17T06:54:41;25.63;;;19.08;;
44248;SDS011;29923;48.718;9.272;2023-08-17T06:57:06;25.17;;;19.50;;
44248;SDS011;29923;48.718;9.272;2023-08-17T06:59:31;26.27;;;19.83;;
44248;SDS011;29923;48.718;9.272;2023-08-17T07:01:58;26.45;;;17.75;;
44248;SDS011;29923;48.718;9.272;2023-08-17T07:04:23;25.67;;;17.58;;
44248;SDS011;29923;48.718;9.272;2023-08-17T07:06:49;23.48;;;17.85;;
44248;SDS011;29923;48.718;9.272;2023-08-17T07:09:14;25.52;;;19.90;;
44248;SDS011;29923;48.718;9.272;2023-08-17T07:11:40;23.40;;;16.92;;
44248;SDS011;29923;48.718;9.272;2023-08-17T07:14:05;27.85;;;19.70;;
44248;SDS011;29923;48.718;9.272;2023-08-17T07:16:34;23.50;;;16.83;;
44248;SDS011;29923;48.718;9.272;2023-08-17T07:18:59;22.48;;;17.27;;
44248;SDS011;29923;48.718;9.272;2023-08-17T07:21:25;26.38;;;17.08;;
44248;SDS011;29923;48.718;9.272;2023-08-17T07:23:50;25.30;;;17.20;;
44248;SDS011;29923;48.718;9.272;2023-08-17T07:26:16;27.67;;;21.65;;
44248;SDS011;29923;48.718;9.272;2023-08-17T07:28:44;24.25;;;19.13;;
44248;SDS011;29923;48.718;9.272;2023-08-17T07:31:09;26.00;;;18.83;;
44248;SDS011;29923;48.718;9.272;2023-08-17T07:33:35;24.58;;;19.17;;
44248;SDS011;29923;48.718;9.272;2023-08-17T07:36:00;27.70;;;20.27;;
44248;SDS011;29923;48.718;9.272;2023-08-17T07:38:26;30.58;;;21.27;;
44248;SDS011;29923;48.718;9.272;2023-08-17T07:40:51;26.15;;;20.33;;
44248;SDS011;29923;48.718;9.272;2023-08-17T07:43:16;39.22;;;24.38;;
44248;SDS011;29923;48.718;9.272;2023-08-17T07:45:42;30.10;;;21.48;;
44248;SDS011;29923;48.718;9.272;2023-08-17T07:48:07;30.73;;;22.25;;
44248;SDS011;29923;48.718;9.272;2023-08-17T07:50:32;32.85;;;23.17;;
44248;SDS011;29923;48.718;9.272;2023-08-17T07:52:58;33.78;;;26.05;;
44248;SDS011;29923;48.718;9.272;2023-08-17T07:55:23;31.48;;;22.25;;
44248;SDS011;29923;48.718;9.272;2023-08-17T07:57:49;33.53;;;21.42;;
44248;SDS011;29923;48.718;9.272;2023-08-17T08:00:14;35.50;;;22.02;;
44248;SDS011;29923;48.718;9.272;2023-08-17T08:02:40;30.25;;;22.40;;
44248;SDS011;29923;48.718;9.272;2023-08-17T08:05:05;28.88;;;20.05;;
44248;SDS011;29923;48.718;9.272;2023-08-17T08:07:31;29.00;;;19.88;;
44248;SDS011;29923;48.718;9.272;2023-08-17T08:09:57;27.55;;;19.63;;
44248;SDS011;29923;48.718;9.272;2023-08-17T08:12:22;33.17;;;21.65;;
44248;SDS011;29923;48.718;9.272;2023-08-17T08:14:48;30.55;;;20.75;;
44248;SDS011;29923;48.718;9.272;2023-08-17T08:17:13;29.65;;;20.48;;
44248;SDS011;29923;48.718;9.272;2023-08-17T08:19:38;30.75;;;20.52;;
44248;SDS011;29923;48.718;9.272;2023-08-17T08:22:04;29.08;;;18.30;;
44248;SDS011;29923;48.718;9.272;2023-08-17T08:24:29;27.15;;;19.60;;
44248;SDS011;29923;48.718;9.272;2023-08-17T08:26:58;28.27;;;18.55;;
44248;SDS011;29923;48.718;9.272;2023-08-17T08:29:24;22.30;;;16.33;;
44248;SDS011;29923;48.718;9.272;2023-08-17T08:31:49;26.52;;;20.95;;
44248;SDS011;29923;48.718;9.272;2023-08-17T08:34:14;25.77;;;17.77;;
44248;SDS011;29923;48.718;9.272;2023-08-17T08:36:40;21.88;;;16.45;;
44248;SDS011;29923;48.718;9.272;2023-08-17T08:39:05;19.73;;;14.38;;
44248;SDS011;29923;48.718;9.272;2023-08-17T08:41:30;20.48;;;14.93;;
44248;SDS011;29923;48.718;9.272;2023-08-17T08:43:56;19.60;;;14.25;;
44248;SDS011;29923;48.718;9.272;2023-08-17T08:46:21;20.50;;;16.25;;
44248;SDS011;29923;48.718;9.272;2023-08-17T08:48:48;20.00;;;14.27;;
44248;SDS011;29923;48.718;9.272;2023-08-17T08:51:16;19.77;;;15.45;;
44248;SDS011;29923;48.718;9.272;2023-08-17T08:53:46;20.05;;;14.73;;
44248;SDS011;29923;48.718;9.272;2023-08-17T08:56:14;26.08;;;15.25;;
44248;SDS011;29923;48.718;9.272;2023-08-17T08:58:40;19.83;;;15.10;;
44248;SDS011;29923;48.718;9.272;2023-08-17T09:01:07;18.23;;;13.90;;
44248;SDS011;29923;48.718;9.272;2023-08-17T09:03:35;20.75;;;13.32;;
44248;SDS011;29923;48.718;9.272;2023-08-17T09:06:01;18.58;;;12.80;;
44248;SDS011;29923;48.718;9.272;2023-08-17T09:08:29;16.23;;;11.98;;
44248;SDS011;29923;48.718;9.272;2023-08-17T09:10:55;21.83;;;11.57;;
44248;SDS011;29923;48.718;9.272;2023-08-17T09:13:21;16.50;;;11.00;;
44248;SDS011;29923;48.718;9.272;2023-08-17T09:15:46;15.82;;;11.20;;
44248;SDS011;29923;48.718;9.272;2023-08-17T09:18:12;16.95;;;10.20;;
44248;SDS011;29923;48.718;9.272;2023-08-17T09:20:41;14.52;;;10.93;;
44248;SDS011;29923;48.718;9.272;2023-08-17T09:23:19;14.18;;;10.02;;
44248;SDS011;29923;48.718;9.272;2023-08-17T09:25:46;16.23;;;10.15;;
44248;SDS011;29923;48.718;9.272;2023-08-17T09:28:12;13.95;;;9.95;;
44248;SDS011;29923;48.718;9.272;2023-08-17T09:33:23;13.38;;;9.10;;
44248;SDS011;29923;48.718;9.272;2023-08-17T09:35:50;11.55;;;8.35;;
44248;SDS011;29923;48.718;9.272;2023-08-17T09:38:16;21.15;;;9.25;;
44248;SDS011;29923;48.718;9.272;2023-08-17T09:40:42;11.43;;;7.43;;
44248;SDS011;29923;48.718;9.272;2023-08-17T09:43:08;12.15;;;7.40;;
44248;SDS011;29923;48.718;9.272;2023-08-17T09:45:35;15.82;;;8.60;;
44248;SDS011;29923;48.718;9.272;2023-08-17T09:48:01;11.23;;;7.60;;
44248;SDS011;29923;48.718;9.272;2023-08-17T09:50:26;9.32;;;7.45;;
44248;SDS011;29923;48.718;9.272;2023-08-17T09:52:55;10.65;;;6.03;;
44248;SDS011;29923;48.718;9.272;2023-08-17T09:55:23;10.02;;;6.60;;
44248;SDS011;29923;48.718;9.272;2023-08-17T09:57:49;8.15;;;6.28;;
44248;SDS011;29923;48.718;9.272;2023-08-17T10:00:16;9.10;;;6.65;;
44248;SDS011;29923;48.718;9.272;2023-08-17T10:02:42;14.48;;;6.15;;
44248;SDS011;29923;48.718;9.272;2023-08-17T10:05:09;15.95;;;7.60;;
44248;SDS011;29923;48.718;9.272;2023-08-17T10:07:36;8.82;;;6.03;;
44248;SDS011;29923;48.718;9.272;2023-08-17T10:10:04;11.27;;;6.65;;
44248;SDS011;29923;48.718;9.272;2023-08-17T10:12:36;12.65;;;7.28;;
44248;SDS011;29923;48.718;9.272;2023-08-17T10:15:03;8.13;;;6.47;;
44248;SDS011;29923;48.718;9.272;2023-08-17T10:17:39;9.98;;;5.65;;
44248;SDS011;29923;48.718;9.272;2023-08-17T10:20:15;11.13;;;6.20;;
44248;SDS011;29923;48.718;9.272;2023-08-17T10:22:48;10.25;;;6.65;;
44248;SDS011;29923;48.718;9.272;2023-08-17T10:25:17;8.55;;;6.30;;
44248;SDS011;29923;48.718;9.272;2023-08-17T10:27:43;11.98;;;5.78;;
44248;SDS011;29923;48.718;9.272;2023-08-17T10:30:10;10.88;;;6.30;;
44248;SDS011;29923;48.718;9.272;2023-08-17T10:32:36;9.38;;;5.93;;
44248;SDS011;29923;48.718;9.272;2023-08-17T10:35:01;8.93;;;6.07;;
44248;SDS011;29923;48.718;9.272;2023-08-17T10:37:28;8.55;;;6.70;;
44248;SDS011;29923;48.718;9.272;2023-08-17T10:39:53;14.32;;;6.65;;
44248;SDS011;29923;48.718;9.272;2023-08-17T10:42:34;6.30;;;5.70;;
44248;SDS011;29923;48.718;9.272;2023-08-17T10:45:02;17.60;;;13.25;;
44248;SDS011;29923;48.718;9.272;2023-08-17T10:47:46;15.05;;;5.78;;
44248;SDS011;29923;48.718;9.272;2023-08-17T10:50:24;9.25;;;6.15;;
44248;SDS011;29923;48.718;9.272;2023-08-17T10:52:50;8.25;;;5.38;;
44248;SDS011;29923;48.718;9.272;2023-08-17T10:55:16;11.83;;;5.60;;
44248;SDS011;29923;48.718;9.272;2023-08-17T10:57:42;8.40;;;5.57;;
44248;SDS011;29923;48.718;9.272;2023-08-17T11:02:40;12.60;;;5.45;;
44248;SDS011;29923;48.718;9.272;2023-08-17T11:05:07;7.63;;;5.20;;
44248;SDS011;29923;48.718;9.272;2023-08-17T11:07:43;6.35;;;4.72;;
44248;SDS011;29923;48.718;9.272;2023-08-17T11:12:43;9.30;;;5.03;;
44248;SDS011;29923;48.718;9.272;2023-08-17T11:15:09;5.95;;;4.45;;
44248;SDS011;29923;48.718;9.272;2023-08-17T11:17:35;5.75;;;4.88;;
44248;SDS011;29923;48.718;9.272;2023-08-17T11:20:00;7.43;;;4.72;;
44248;SDS011;29923;48.718;9.272;2023-08-17T11:22:27;7.88;;;5.15;;
44248;SDS011;29923;48.718;9.272;2023-08-17T11:24:52;6.38;;;5.25;;
44248;SDS011;29923;48.718;9.272;2023-08-17T11:27:18;13.27;;;4.68;;
44248;SDS011;29923;48.718;9.272;2023-08-17T11:29:44;6.10;;;4.65;;
44248;SDS011;29923;48.718;9.272;2023-08-17T11:32:09;6.57;;;4.15;;
44248;SDS011;29923;48.718;9.272;2023-08-17T11:34:36;8.52;;;4.38;;
44248;SDS011;29923;48.718;9.272;2023-08-17T11:37:01;5.00;;;3.92;;
44248;SDS011;29923;48.718;9.272;2023-08-17T11:39:27;4.45;;;4.00;;
44248;SDS011;29923;48.718;9.272;2023-08-17T11:41:52;4.53;;;3.63;;
44248;SDS011;29923;48.718;9.272;2023-08-17T11:44:18;6.43;;;4.00;;
44248;SDS011;29923;48.718;9.272;2023-08-17T11:46:46;4.10;;;3.70;;
44248;SDS011;29923;48.718;9.272;2023-08-17T11:49:12;8.25;;;3.50;;
44248;SDS011;29923;48.718;9.272;2023-08-17T11:51:37;5.75;;;4.22;;
44248;SDS011;29923;48.718;9.272;2023-08-17T11:54:04;11.23;;;4.35;;
44248;SDS011;29923;48.718;9.272;2023-08-17T11:56:32;7.68;;;4.20;;
44248;SDS011;29923;48.718;9.272;2023-08-17T11:58:58;4.25;;;3.85;;
44248;SDS011;29923;48.718;9.272;2023-08-17T12:01:23;8.40;;;3.63;;
44248;SDS011;29923;48.718;9.272;2023-08-17T12:03:48;7.65;;;3.47;;
44248;SDS011;29923;48.718;9.272;2023-08-17T12:06:15;7.95;;;3.50;;
44248;SDS011;29923;48.718;9.272;2023-08-17T12:08:47;6.30;;;3.33;;
44248;SDS011;29923;48.718;9.272;2023-08-17T12:11:12;8.55;;;4.03;;
44248;SDS011;29923;48.718;9.272;2023-08-17T12:13:38;6.28;;;3.25;;
44248;SDS011;29923;48.718;9.272;2023-08-17T12:16:03;5.75;;;4.43;;
44248;SDS011;29923;48.718;9.272;2023-08-17T12:18:31;8.52;;;5.53;;
44248;SDS011;29923;48.718;9.272;2023-08-17T12:20:57;9.45;;;5.68;;
44248;SDS011;29923;48.718;9.272;2023-08-17T12:23:22;9.77;;;5.90;;
44248;SDS011;29923;48.718;9.272;2023-08-17T12:25:54;11.80;;;6.57;;
44248;SDS011;29923;48.718;9.272;2023-08-17T12:28:20;9.65;;;6.45;;
44248;SDS011;29923;48.718;9.272;2023-08-17T12:30:46;10.88;;;6.45;;
44248;SDS011;29923;48.718;9.272;2023-08-17T12:33:12;12.25;;;6.30;;
44248;SDS011;29923;48.718;9.272;2023-08-17T12:35:37;14.68;;;6.40;;
44248;SDS011;29923;48.718;9.272;2023-08-17T12:38:03;10.40;;;6.25;;
44248;SDS011;29923;48.718;9.272;2023-08-17T12:40:28;12.18;;;6.78;;
44248;SDS011;29923;48.718;9.272;2023-08-17T12:42:53;11.30;;;6.32;;
44248;SDS011;29923;48.718;9.272;2023-08-17T12:45:19;10.85;;;6.70;;
44248;SDS011;29923;48.718;9.272;2023-08-17T12:47:44;8.60;;;6.75;;
44248;SDS011;29923;48.718;9.272;2023-08-17T12:50:10;7.32;;;6.18;;
44248;SDS011;29923;48.718;9.272;2023-08-17T12:52:35;8.50;;;5.90;;
44248;SDS011;29923;48.718;9.272;2023-08-17T12:55:00;7.65;;;6.30;;
44248;SDS011;29923;48.718;9.272;2023-08-17T12:57:26;10.55;;;6.60;;
44248;SDS011;29923;48.718;9.272;2023-08-17T12:59:52;11.15;;;6.68;;
44248;SDS011;29923;48.718;9.272;2023-08-17T13:02:17;8.65;;;6.82;;
44248;SDS011;29923;48.718;9.272;2023-08-17T13:04:42;12.00;;;7.20;;
44248;SDS011;29923;48.718;9.272;2023-08-17T13:07:08;13.68;;;8.15;;
44248;SDS011;29923;48.718;9.272;2023-08-17T13:09:33;9.95;;;7.35;;
44248;SDS011;29923;48.718;9.272;2023-08-17T13:11:59;13.23;;;7.70;;
44248;SDS011;29923;48.718;9.272;2023-08-17T13:14:25;12.63;;;7.93;;
44248;SDS011;29923;48.718;9.272;2023-08-17T13:16:50;21.17;;;8.23;;
44248;SDS011;29923;48.718;9.272;2023-08-17T13:19:15;11.23;;;9.18;;
44248;SDS011;29923;48.718;9.272;2023-08-17T13:21:41;12.45;;;7.30;;
44248;SDS011;29923;48.718;9.272;2023-08-17T13:24:06;14.15;;;7.53;;
44248;SDS011;29923;48.718;9.272;2023-08-17T13:26:32;10.55;;;7.30;;
44248;SDS011;29923;48.718;9.272;2023-08-17T13:28:57;12.88;;;6.65;;
44248;SDS011;29923;48.718;9.272;2023-08-17T13:31:23;12.23;;;6.40;;
44248;SDS011;29923;48.718;9.272;2023-08-17T13:33:48;9.60;;;6.43;;
44248;SDS011;29923;48.718;9.272;2023-08-17T13:36:13;12.02;;;8.00;;
44248;SDS011;29923;48.718;9.272;2023-08-17T13:38:39;10.85;;;6.05;;
44248;SDS011;29923;48.718;9.272;2023-08-17T13:41:04;12.48;;;5.68;;
44248;SDS011;29923;48.718;9.272;2023-08-17T13:43:29;13.35;;;5.50;;
44248;SDS011;29923;48.718;9.272;2023-08-17T13:45:55;11.57;;;5.85;;
44248;SDS011;29923;48.718;9.272;2023-08-17T13:48:21;13.43;;;5.68;;
44248;SDS011;29923;48.718;9.272;2023-08-17T13:50:46;11.30;;;5.72;;
44248;SDS011;29923;48.718;9.272;2023-08-17T13:53:11;8.27;;;5.35;;
44248;SDS011;29923;48.718;9.272;2023-08-17T13:55:37;8.95;;;5.22;;
44248;SDS011;29923;48.718;9.272;2023-08-17T13:58:02;9.05;;;5.05;;
44248;SDS011;29923;48.718;9.272;2023-08-17T14:00:27;7.82;;;4.75;;
44248;SDS011;29923;48.718;9.272;2023-08-17T14:02:53;8.27;;;4.60;;
44248;SDS011;29923;48.718;9.272;2023-08-17T14:05:18;8.68;;;4.85;;
44248;SDS011;29923;48.718;9.272;2023-08-17T14:07:44;8.05;;;5.20;;
44248;SDS011;29923;48.718;9.272;2023-08-17T14:10:10;10.40;;;4.97;;
44248;SDS011;29923;48.718;9.272;2023-08-17T14:12:35;9.15;;;4.70;;
44248;SDS011;29923;48.718;9.272;2023-08-17T14:15:00;8.55;;;4.53;;
44248;SDS011;29923;48.718;9.272;2023-08-17T14:17:26;5.22;;;4.72;;
44248;SDS011;29923;48.718;9.272;2023-08-17T14:19:51;6.22;;;5.07;;
44248;SDS011;29923;48.718;9.272;2023-08-17T14:22:16;14.07;;;5.22;;
44248;SDS011;29923;48.718;9.272;2023-08-17T14:24:42;9.73;;;5.00;;
44248;SDS011;29923;48.718;9.272;2023-08-17T14:27:07;9.70;;;6.57;;
44248;SDS011;29923;48.718;9.272;2023-08-17T14:29:32;7.30;;;5.60;;